Time;durP1;ratioP1;P1;durP2;ratioP2;P2;SDS_P1;SDS_P2;PMS_P1;PMS_P2;Temp;Humidity;BMP_temperature;BMP_pressure;BME280_temperature;BME280_humidity;BME280_pressure;Samples;Min_cycle;Max_cycle;Signal;HPM_P1;HPM_P2
2022/01/08 00:00:09;;;;;;;3.80;2.60;;;;;;;;;;4969704;28;20374;-73
2022/01/08 00:02:34;;;;;;;4.05;2.65;;;;;;;;;;4959917;28;20022;-73
2022/01/08 00:05:00;;;;;;;3.25;2.35;;;;;;;;;;4966142;28;20030;-73
2022/01/08 00:07:25;;;;;;;3.70;2.30;;;;;;;;;;4967351;28;20117;-73
2022/01/08 00:09:50;;;;;;;5.38;2.88;;;;;;;;;;4966782;28;20138;-73
2022/01/08 00:12:15;;;;;;;3.92;2.10;;;;;;;;;;4968981;28;20038;-73
2022/01/08 00:14:41;;;;;;;4.60;2.92;;;;;;;;;;4968840;28;20078;-73
2022/01/08 00:17:06;;;;;;;5.68;2.90;;;;;;;;;;4965379;28;20043;-73
2022/01/08 00:19:31;;;;;;;4.07;2.67;;;;;;;;;;4965883;28;20034;-73
2022/01/08 00:21:56;;;;;;;4.60;3.00;;;;;;;;;;4967513;28;20035;-72
2022/01/08 00:24:22;;;;;;;4.72;3.03;;;;;;;;;;4966943;28;20031;-72
2022/01/08 00:26:47;;;;;;;3.65;2.78;;;;;;;;;;4970898;28;20074;-72
2022/01/08 00:29:12;;;;;;;4.13;2.65;;;;;;;;;;4967649;28;20034;-72
2022/01/08 00:31:38;;;;;;;4.95;2.85;;;;;;;;;;4968973;28;20030;-72
2022/01/08 00:34:03;;;;;;;4.78;2.95;;;;;;;;;;4964188;28;20390;-72
2022/01/08 00:36:28;;;;;;;4.50;2.88;;;;;;;;;;4970257;28;20041;-73
2022/01/08 00:38:53;;;;;;;4.00;2.67;;;;;;;;;;4972349;28;20378;-73
2022/01/08 00:41:19;;;;;;;4.32;2.92;;;;;;;;;;4968360;28;20033;-74
2022/01/08 00:43:44;;;;;;;3.80;2.90;;;;;;;;;;4969450;28;20460;-72
2022/01/08 00:46:09;;;;;;;4.82;3.30;;;;;;;;;;4965518;28;20043;-74
2022/01/08 00:48:34;;;;;;;4.70;3.30;;;;;;;;;;4967907;28;20034;-73
2022/01/08 00:50:59;;;;;;;4.53;3.08;;;;;;;;;;4972338;28;20023;-74
2022/01/08 00:53:25;;;;;;;5.85;3.10;;;;;;;;;;4971927;28;20479;-73
2022/01/08 00:55:50;;;;;;;5.70;3.10;;;;;;;;;;4971871;28;20038;-74
2022/01/08 00:58:15;;;;;;;4.90;2.85;;;;;;;;;;4971973;28;20720;-74
2022/01/08 01:00:43;;;;;;;6.65;4.00;;;;;;;;;;4968729;28;20160;-72
2022/01/08 01:03:08;;;;;;;5.57;3.10;;;;;;;;;;4966601;28;20027;-73
2022/01/08 01:05:34;;;;;;;5.30;2.90;;;;;;;;;;4966461;28;20815;-73
2022/01/08 01:07:59;;;;;;;4.13;2.78;;;;;;;;;;4971034;28;20034;-73
2022/01/08 01:10:24;;;;;;;4.80;3.20;;;;;;;;;;4970898;28;20562;-73
2022/01/08 01:12:50;;;;;;;4.90;3.30;;;;;;;;;;4971317;28;20038;-73
2022/01/08 01:15:16;;;;;;;5.63;3.15;;;;;;;;;;4970248;28;20074;-73
2022/01/08 01:17:42;;;;;;;4.53;2.90;;;;;;;;;;4971450;28;20471;-74
2022/01/08 01:20:08;;;;;;;4.78;2.95;;;;;;;;;;4972290;28;20027;-74
2022/01/08 01:22:51;;;;;;;5.43;3.22;;;;;;;;;;4970774;28;20026;-73
2022/01/08 01:25:22;;;;;;;4.30;2.88;;;;;;;;;;4971043;28;20372;-73
2022/01/08 01:28:00;;;;;;;4.85;2.97;;;;;;;;;;4965949;28;20487;-74
2022/01/08 01:41:36;;;;;;;4.25;2.80;;;;;;;;;;4911152;29;20027;-72
2022/01/08 01:49:14;;;;;;;5.45;3.03;;;;;;;;;;4911118;29;20031;-72
2022/01/08 01:51:39;;;;;;;5.32;3.22;;;;;;;;;;4895344;29;20044;-73
2022/01/08 01:54:04;;;;;;;5.72;3.45;;;;;;;;;;4911131;29;20179;-73
2022/01/08 01:56:30;;;;;;;4.88;3.03;;;;;;;;;;4909775;29;20020;-73
2022/01/08 01:58:55;;;;;;;5.30;3.08;;;;;;;;;;4911855;29;20107;-74
2022/01/08 02:01:20;;;;;;;5.35;3.20;;;;;;;;;;4909722;29;20180;-73
2022/01/08 02:03:45;;;;;;;5.00;3.00;;;;;;;;;;4910523;29;20052;-72
2022/01/08 02:06:11;;;;;;;6.57;3.47;;;;;;;;;;4910387;29;20044;-75
2022/01/08 02:08:41;;;;;;;4.53;3.20;;;;;;;;;;4914102;29;20047;-74
2022/01/08 02:11:07;;;;;;;4.40;2.90;;;;;;;;;;4956139;28;20096;-74
2022/01/08 02:13:33;;;;;;;5.60;3.13;;;;;;;;;;4969408;28;20046;-74
2022/01/08 02:16:01;;;;;;;4.90;3.10;;;;;;;;;;4969412;28;20078;-73
2022/01/08 02:18:26;;;;;;;3.97;2.80;;;;;;;;;;4968946;28;20030;-74
2022/01/08 02:20:52;;;;;;;4.20;2.88;;;;;;;;;;4968276;28;20090;-72
2022/01/08 02:23:17;;;;;;;4.20;3.07;;;;;;;;;;4969664;28;20034;-73
2022/01/08 02:25:42;;;;;;;4.03;2.97;;;;;;;;;;4969606;28;20066;-74
2022/01/08 02:28:07;;;;;;;4.70;2.83;;;;;;;;;;4970029;28;20069;-74
2022/01/08 02:30:33;;;;;;;4.87;3.23;;;;;;;;;;4968218;28;20034;-72
2022/01/08 02:32:58;;;;;;;5.63;3.10;;;;;;;;;;4969297;28;20023;-73
2022/01/08 02:35:23;;;;;;;6.33;3.43;;;;;;;;;;4967204;28;20069;-74
2022/01/08 02:37:49;;;;;;;4.85;2.90;;;;;;;;;;4965081;28;20023;-73
2022/01/08 02:40:14;;;;;;;4.93;2.90;;;;;;;;;;4970670;28;20421;-73
2022/01/08 02:42:49;;;;;;;5.90;3.37;;;;;;;;;;4964195;28;20030;-72
2022/01/08 02:45:16;;;;;;;5.00;3.00;;;;;;;;;;4968412;28;20038;-73
2022/01/08 02:47:41;;;;;;;5.57;3.03;;;;;;;;;;4966624;28;20038;-73
2022/01/08 02:50:06;;;;;;;5.13;3.00;;;;;;;;;;4973422;28;20433;-74
2022/01/08 02:52:32;;;;;;;5.17;3.10;;;;;;;;;;4968964;28;20050;-73
2022/01/08 02:54:57;;;;;;;5.03;3.47;;;;;;;;;;4970279;28;20030;-73
2022/01/08 02:57:22;;;;;;;4.90;3.20;;;;;;;;;;4968329;28;20027;-74
2022/01/08 02:59:47;;;;;;;5.60;3.10;;;;;;;;;;4969111;28;20062;-74
2022/01/08 03:02:13;;;;;;;5.03;2.90;;;;;;;;;;4964204;28;20041;-73
2022/01/08 03:04:38;;;;;;;6.28;3.08;;;;;;;;;;4969282;28;20054;-74
2022/01/08 03:07:03;;;;;;;4.93;3.20;;;;;;;;;;4968925;28;20081;-73
2022/01/08 03:09:29;;;;;;;5.07;3.23;;;;;;;;;;4967302;28;20020;-72
2022/01/08 03:11:55;;;;;;;4.37;3.00;;;;;;;;;;4969904;28;20034;-74
2022/01/08 03:14:20;;;;;;;5.00;3.40;;;;;;;;;;4967201;28;20778;-73
2022/01/08 03:16:45;;;;;;;5.67;3.13;;;;;;;;;;4964355;28;20043;-72
2022/01/08 03:19:11;;;;;;;5.93;3.27;;;;;;;;;;4968663;28;20034;-74
2022/01/08 03:21:39;;;;;;;4.90;3.07;;;;;;;;;;4971663;28;20118;-72
2022/01/08 03:24:06;;;;;;;6.23;3.50;;;;;;;;;;4966075;28;20058;-73
2022/01/08 03:26:32;;;;;;;5.43;3.00;;;;;;;;;;4969470;28;20048;-73
2022/01/08 03:28:57;;;;;;;4.57;3.23;;;;;;;;;;4967374;28;20041;-73
2022/01/08 03:31:23;;;;;;;4.97;3.00;;;;;;;;;;4968624;28;20125;-73
2022/01/08 03:33:49;;;;;;;4.60;3.00;;;;;;;;;;4962504;28;20018;-73
2022/01/08 03:36:14;;;;;;;5.13;3.20;;;;;;;;;;4968889;28;20038;-73
2022/01/08 03:38:39;;;;;;;6.57;3.50;;;;;;;;;;4966963;28;20034;-73
2022/01/08 03:41:05;;;;;;;5.67;3.13;;;;;;;;;;4967030;28;20546;-73
2022/01/08 03:43:30;;;;;;;5.87;3.40;;;;;;;;;;4969008;28;20467;-73
2022/01/08 03:45:56;;;;;;;5.53;3.53;;;;;;;;;;4965866;28;20046;-73
2022/01/08 03:48:33;;;;;;;5.60;3.40;;;;;;;;;;4966324;28;20023;-73
2022/01/08 03:50:58;;;;;;;6.20;3.47;;;;;;;;;;4969039;28;20414;-74
2022/01/08 03:53:24;;;;;;;6.20;3.47;;;;;;;;;;4968988;28;20033;-72
2022/01/08 03:55:50;;;;;;;5.57;3.20;;;;;;;;;;4967217;28;20031;-74
2022/01/08 03:58:15;;;;;;;5.40;3.43;;;;;;;;;;4968413;28;20089;-74
2022/01/08 04:00:40;;;;;;;6.37;3.63;;;;;;;;;;4967455;28;20022;-73
2022/01/08 04:03:05;;;;;;;5.37;3.10;;;;;;;;;;4969077;28;20031;-73
2022/01/08 04:05:31;;;;;;;5.30;2.97;;;;;;;;;;4967673;28;20031;-73
2022/01/08 04:07:56;;;;;;;5.80;3.00;;;;;;;;;;4967950;28;20041;-73
2022/01/08 04:10:21;;;;;;;4.87;3.00;;;;;;;;;;4963688;28;20851;-73
2022/01/08 04:12:51;;;;;;;4.93;3.20;;;;;;;;;;4972663;28;20062;-73
2022/01/08 04:15:38;;;;;;;5.23;3.20;;;;;;;;;;4972464;28;20502;-73
2022/01/08 04:18:03;;;;;;;5.63;3.50;;;;;;;;;;4972515;28;20058;-74
2022/01/08 04:20:28;;;;;;;5.50;3.33;;;;;;;;;;4970905;28;20022;-74
2022/01/08 04:22:53;;;;;;;5.77;3.30;;;;;;;;;;4973421;28;20038;-73
2022/01/08 04:25:21;;;;;;;4.70;2.90;;;;;;;;;;4974211;28;20446;-73
2022/01/08 04:27:46;;;;;;;4.53;2.73;;;;;;;;;;4974803;28;20050;-73
2022/01/08 04:30:11;;;;;;;5.37;2.73;;;;;;;;;;4971323;28;20054;-74
2022/01/08 04:32:36;;;;;;;4.40;2.70;;;;;;;;;;4975346;28;20034;-72
2022/01/08 04:35:02;;;;;;;4.63;2.77;;;;;;;;;;4973353;28;20026;-73
2022/01/08 04:37:27;;;;;;;4.17;2.63;;;;;;;;;;4971604;28;20375;-73
2022/01/08 04:39:52;;;;;;;5.27;2.50;;;;;;;;;;4972842;28;20037;-73
2022/01/08 04:42:18;;;;;;;3.33;2.20;;;;;;;;;;4970381;28;20050;-73
2022/01/08 04:44:43;;;;;;;3.97;2.30;;;;;;;;;;4971985;28;20027;-72
2022/01/08 04:47:08;;;;;;;3.10;2.07;;;;;;;;;;4971880;28;20050;-73
2022/01/08 04:49:33;;;;;;;3.13;2.10;;;;;;;;;;4970968;28;20027;-72
2022/01/08 04:51:58;;;;;;;3.50;2.20;;;;;;;;;;4972340;28;20097;-73
2022/01/08 04:54:24;;;;;;;3.50;2.20;;;;;;;;;;4971191;28;20055;-72
2022/01/08 04:56:49;;;;;;;4.00;2.30;;;;;;;;;;4970671;28;20049;-73
2022/01/08 04:59:15;;;;;;;3.07;2.00;;;;;;;;;;4971556;28;20034;-72
2022/01/08 05:01:41;;;;;;;4.80;1.70;;;;;;;;;;4965430;28;20023;-71
2022/01/08 05:04:06;;;;;;;3.37;2.00;;;;;;;;;;4972106;28;20054;-72
2022/01/08 05:06:32;;;;;;;2.70;1.90;;;;;;;;;;4971960;28;20420;-73
2022/01/08 05:08:57;;;;;;;3.40;1.70;;;;;;;;;;4969914;28;20430;-73
2022/01/08 05:11:22;;;;;;;3.97;1.70;;;;;;;;;;4970618;28;20079;-74
2022/01/08 05:13:49;;;;;;;2.67;1.33;;;;;;;;;;4968151;28;20069;-72
2022/01/08 05:16:15;;;;;;;3.37;1.13;;;;;;;;;;4966096;28;20162;-74
2022/01/08 05:18:40;;;;;;;1.67;0.87;;;;;;;;;;4966060;28;20475;-73
2022/01/08 05:21:39;;;;;;;2.72;0.90;;;;;;;;;;4971930;28;20150;-73
2022/01/08 05:23:58;;;;;;;1.10;0.80;;;;;;;;;;4959755;28;20154;-72
2022/01/08 05:26:25;;;;;;;2.05;1.05;;;;;;;;;;4966082;28;20397;-74
2022/01/08 05:28:51;;;;;;;1.00;0.80;;;;;;;;;;4969796;28;20031;-73
2022/01/08 05:31:18;;;;;;;4.07;1.00;;;;;;;;;;4970892;28;20039;-74
2022/01/08 05:33:43;;;;;;;2.75;0.93;;;;;;;;;;4968031;28;20106;-74
2022/01/08 05:36:08;;;;;;;1.90;1.15;;;;;;;;;;4971319;28;20090;-73
2022/01/08 05:38:33;;;;;;;3.47;1.00;;;;;;;;;;4969352;28;20123;-73
2022/01/08 05:40:58;;;;;;;2.22;1.10;;;;;;;;;;4970228;28;20493;-73
2022/01/08 05:43:24;;;;;;;1.63;0.70;;;;;;;;;;4968905;28;20466;-73
2022/01/08 05:45:49;;;;;;;2.95;1.10;;;;;;;;;;4971457;28;20066;-73
2022/01/08 05:48:14;;;;;;;1.35;0.90;;;;;;;;;;4971428;28;20098;-73
2022/01/08 05:50:40;;;;;;;2.08;0.77;;;;;;;;;;4971882;28;20054;-73
2022/01/08 05:53:05;;;;;;;2.75;0.70;;;;;;;;;;4963536;28;20089;-74
2022/01/08 05:55:30;;;;;;;1.40;0.90;;;;;;;;;;4971200;28;20101;-73
2022/01/08 05:57:55;;;;;;;2.63;1.00;;;;;;;;;;4970078;28;20038;-73
2022/01/08 06:00:21;;;;;;;1.33;0.80;;;;;;;;;;4966424;28;20025;-74
2022/01/08 06:02:46;;;;;;;1.25;0.73;;;;;;;;;;4968243;28;20027;-73
2022/01/08 06:05:11;;;;;;;1.17;0.70;;;;;;;;;;4968617;28;20027;-72
2022/01/08 06:07:36;;;;;;;1.48;1.02;;;;;;;;;;4970511;28;20438;-73
2022/01/08 06:10:02;;;;;;;2.70;1.05;;;;;;;;;;4964316;28;20394;-73
2022/01/08 06:12:27;;;;;;;1.38;0.70;;;;;;;;;;4965436;28;20080;-73
2022/01/08 06:14:52;;;;;;;2.15;1.05;;;;;;;;;;4969782;28;20047;-72
2022/01/08 06:17:18;;;;;;;2.55;1.00;;;;;;;;;;4971477;28;20025;-72
2022/01/08 06:19:43;;;;;;;1.95;0.98;;;;;;;;;;4970567;28;20450;-73
2022/01/08 06:22:08;;;;;;;2.10;0.77;;;;;;;;;;4970297;28;20426;-72
2022/01/08 06:24:33;;;;;;;1.60;0.88;;;;;;;;;;4964110;28;20442;-73
2022/01/08 06:26:58;;;;;;;1.55;0.80;;;;;;;;;;4964829;28;20065;-73
2022/01/08 06:29:24;;;;;;;1.35;0.90;;;;;;;;;;4969058;28;20021;-73
2022/01/08 06:31:49;;;;;;;1.35;0.90;;;;;;;;;;4967543;28;20390;-72
2022/01/08 06:34:14;;;;;;;1.77;0.85;;;;;;;;;;4968528;28;20019;-73
2022/01/08 06:36:39;;;;;;;1.83;0.80;;;;;;;;;;4970223;28;20030;-73
2022/01/08 06:39:04;;;;;;;2.83;0.80;;;;;;;;;;4969058;28;20038;-73
2022/01/08 06:41:30;;;;;;;1.25;0.70;;;;;;;;;;4969775;28;20058;-73
2022/01/08 06:43:56;;;;;;;1.10;0.68;;;;;;;;;;4969400;28;20553;-73
2022/01/08 06:46:21;;;;;;;1.30;0.70;;;;;;;;;;4966773;28;20049;-72
2022/01/08 06:48:46;;;;;;;1.67;0.70;;;;;;;;;;4969201;28;20451;-72
2022/01/08 06:51:12;;;;;;;1.42;0.60;;;;;;;;;;4972794;28;20111;-72
2022/01/08 06:53:37;;;;;;;0.98;0.60;;;;;;;;;;4969874;28;20027;-73
2022/01/08 06:56:02;;;;;;;2.50;0.68;;;;;;;;;;4969100;28;20018;-72
2022/01/08 06:58:27;;;;;;;2.08;0.70;;;;;;;;;;4963306;28;20041;-73
2022/01/08 07:00:53;;;;;;;1.20;0.60;;;;;;;;;;4967057;28;20040;-73
2022/01/08 07:03:18;;;;;;;1.08;0.57;;;;;;;;;;4963360;28;20034;-73
2022/01/08 07:05:43;;;;;;;0.77;0.55;;;;;;;;;;4968758;28;20110;-72
2022/01/08 07:08:10;;;;;;;1.48;0.60;;;;;;;;;;4961310;28;20058;-73
2022/01/08 07:10:35;;;;;;;2.38;0.70;;;;;;;;;;4966936;28;20130;-72
2022/01/08 07:13:00;;;;;;;1.20;0.70;;;;;;;;;;4961478;28;20106;-73
2022/01/08 07:15:26;;;;;;;0.90;0.55;;;;;;;;;;4966269;28;20058;-73
2022/01/08 07:17:52;;;;;;;1.70;0.52;;;;;;;;;;4968183;28;20049;-72
2022/01/08 07:20:18;;;;;;;0.80;0.50;;;;;;;;;;4966737;28;20102;-72
2022/01/08 07:22:43;;;;;;;1.20;0.50;;;;;;;;;;4962539;28;20023;-72
2022/01/08 07:25:10;;;;;;;1.08;0.50;;;;;;;;;;4958223;28;20680;-72
2022/01/08 07:27:36;;;;;;;2.40;0.43;;;;;;;;;;4965899;28;20031;-72
2022/01/08 07:30:03;;;;;;;0.60;0.55;;;;;;;;;;4951559;28;20161;-73
2022/01/08 07:32:28;;;;;;;1.48;0.50;;;;;;;;;;4967192;28;20894;-73
2022/01/08 07:34:54;;;;;;;1.02;0.60;;;;;;;;;;4965075;28;20023;-72
2022/01/08 07:37:19;;;;;;;0.75;0.60;;;;;;;;;;4963075;28;20027;-73
2022/01/08 07:39:44;;;;;;;2.28;0.68;;;;;;;;;;4961204;28;20019;-73
2022/01/08 07:42:10;;;;;;;0.90;0.50;;;;;;;;;;4965860;28;20494;-73
2022/01/08 07:44:35;;;;;;;1.05;0.50;;;;;;;;;;4967801;28;20026;-74
2022/01/08 07:47:01;;;;;;;1.83;0.60;;;;;;;;;;4958550;28;20031;-74
2022/01/08 07:49:26;;;;;;;0.52;0.50;;;;;;;;;;4968698;28;20023;-72
2022/01/08 07:51:51;;;;;;;1.52;0.80;;;;;;;;;;4973388;28;20394;-73
2022/01/08 07:54:16;;;;;;;1.38;0.60;;;;;;;;;;4964572;28;20058;-73
2022/01/08 07:56:41;;;;;;;2.38;0.70;;;;;;;;;;4963871;28;20586;-73
2022/01/08 07:59:07;;;;;;;1.35;0.63;;;;;;;;;;4964070;28;20031;-73
2022/01/08 08:01:32;;;;;;;1.70;0.60;;;;;;;;;;4966306;28;20027;-72
2022/01/08 08:03:57;;;;;;;1.02;0.70;;;;;;;;;;4963497;28;20019;-73
2022/01/08 08:06:22;;;;;;;1.92;0.85;;;;;;;;;;4960696;28;20479;-73
2022/01/08 08:08:47;;;;;;;1.48;0.70;;;;;;;;;;4964708;28;20114;-72
2022/01/08 08:11:13;;;;;;;2.22;0.55;;;;;;;;;;4966904;28;20049;-73
2022/01/08 08:13:38;;;;;;;2.08;0.73;;;;;;;;;;4960928;28;20030;-73
2022/01/08 08:16:03;;;;;;;2.03;0.88;;;;;;;;;;4968555;28;20062;-74
2022/01/08 08:18:30;;;;;;;1.77;0.90;;;;;;;;;;4967947;28;20034;-73
2022/01/08 08:20:55;;;;;;;1.60;0.63;;;;;;;;;;4969840;28;20382;-73
2022/01/08 08:23:20;;;;;;;1.85;0.60;;;;;;;;;;4948905;28;20031;-74
2022/01/08 08:25:45;;;;;;;1.05;0.55;;;;;;;;;;4969223;28;20039;-74
2022/01/08 08:28:10;;;;;;;1.88;0.65;;;;;;;;;;4965043;28;20041;-74
2022/01/08 08:30:36;;;;;;;1.20;0.70;;;;;;;;;;4968494;28;20461;-74
2022/01/08 08:33:01;;;;;;;1.90;0.50;;;;;;;;;;4968885;28;20035;-74
2022/01/08 08:35:26;;;;;;;1.73;0.55;;;;;;;;;;4968058;28;20474;-73
2022/01/08 08:37:52;;;;;;;1.45;0.60;;;;;;;;;;4966137;28;20437;-74
2022/01/08 08:40:17;;;;;;;1.55;0.70;;;;;;;;;;4969186;28;20026;-75
2022/01/08 08:42:43;;;;;;;2.70;0.50;;;;;;;;;;4968396;28;20045;-75
2022/01/08 08:45:08;;;;;;;1.15;0.60;;;;;;;;;;4964204;28;20056;-75
2022/01/08 08:47:34;;;;;;;0.73;0.60;;;;;;;;;;4965442;28;20039;-77
2022/01/08 08:49:59;;;;;;;1.42;0.85;;;;;;;;;;4969262;28;20141;-77
2022/01/08 08:52:25;;;;;;;0.95;0.60;;;;;;;;;;4967256;28;20308;-73
2022/01/08 08:54:50;;;;;;;0.80;0.60;;;;;;;;;;4966745;28;20038;-65
2022/01/08 08:57:16;;;;;;;1.80;0.73;;;;;;;;;;4967347;28;20063;-64
2022/01/08 08:59:41;;;;;;;1.55;0.70;;;;;;;;;;4966679;28;20101;-65
2022/01/08 09:02:06;;;;;;;1.80;0.73;;;;;;;;;;4970299;28;20105;-64
2022/01/08 09:04:31;;;;;;;1.70;0.80;;;;;;;;;;4971493;28;20045;-64
2022/01/08 09:06:57;;;;;;;0.93;0.60;;;;;;;;;;4972460;28;20053;-65
2022/01/08 09:09:26;;;;;;;0.95;0.60;;;;;;;;;;4968640;28;20015;-64
2022/01/08 09:11:52;;;;;;;0.93;0.60;;;;;;;;;;4970478;28;20109;-65
2022/01/08 09:14:17;;;;;;;2.35;0.70;;;;;;;;;;4967107;28;20162;-64
2022/01/08 09:16:47;;;;;;;2.42;1.10;;;;;;;;;;4968614;28;20498;-64
2022/01/08 09:19:12;;;;;;;1.30;0.63;;;;;;;;;;4972005;28;20023;-64
2022/01/08 09:21:37;;;;;;;0.63;0.47;;;;;;;;;;4969419;28;20397;-64
2022/01/08 09:24:02;;;;;;;1.05;0.60;;;;;;;;;;4971987;28;20022;-64
2022/01/08 09:26:27;;;;;;;0.88;0.57;;;;;;;;;;4969109;28;20084;-65
2022/01/08 09:28:53;;;;;;;2.08;0.57;;;;;;;;;;4969337;28;20031;-65
2022/01/08 09:31:18;;;;;;;0.95;0.50;;;;;;;;;;4971353;28;20133;-65
2022/01/08 09:33:44;;;;;;;1.50;0.60;;;;;;;;;;4971220;28;20168;-66
2022/01/08 09:36:09;;;;;;;1.48;0.65;;;;;;;;;;4970450;28;20121;-65
2022/01/08 09:38:34;;;;;;;1.92;0.57;;;;;;;;;;4971593;28;20169;-65
2022/01/08 09:40:59;;;;;;;0.88;0.55;;;;;;;;;;4971607;28;20160;-65
2022/01/08 09:43:25;;;;;;;0.95;0.60;;;;;;;;;;4970680;28;20633;-64
2022/01/08 09:45:51;;;;;;;0.70;0.70;;;;;;;;;;4970736;28;20031;-64
2022/01/08 09:48:16;;;;;;;3.33;0.60;;;;;;;;;;4970453;28;20489;-65
2022/01/08 09:50:42;;;;;;;2.03;0.65;;;;;;;;;;4974134;28;20117;-64
2022/01/08 09:53:07;;;;;;;0.82;0.50;;;;;;;;;;4970045;28;20398;-65
2022/01/08 09:55:33;;;;;;;1.45;0.57;;;;;;;;;;4971536;28;20035;-65
2022/01/08 09:57:58;;;;;;;1.48;0.57;;;;;;;;;;4971100;28;20524;-64
2022/01/08 10:00:23;;;;;;;1.52;0.60;;;;;;;;;;4971025;28;20494;-65
2022/01/08 10:02:49;;;;;;;1.80;0.73;;;;;;;;;;4967511;28;20039;-65
2022/01/08 10:05:15;;;;;;;2.60;0.90;;;;;;;;;;4969345;28;20030;-65
2022/01/08 10:07:41;;;;;;;2.25;0.68;;;;;;;;;;4965634;28;20049;-64
2022/01/08 10:10:12;;;;;;;1.63;0.60;;;;;;;;;;4971300;28;20027;-66
2022/01/08 10:12:40;;;;;;;3.47;0.70;;;;;;;;;;4963245;28;20031;-66
2022/01/08 10:17:49;;;;;;;2.85;0.80;;;;;;;;;;4967142;28;20390;-64
2022/01/08 10:20:28;;;;;;;1.70;0.70;;;;;;;;;;4970983;28;20027;-63
2022/01/08 10:23:08;;;;;;;1.23;0.70;;;;;;;;;;4971242;28;20023;-64
2022/01/08 10:25:33;;;;;;;0.82;0.80;;;;;;;;;;4967804;28;20491;-64
2022/01/08 10:27:58;;;;;;;3.50;0.80;;;;;;;;;;4968194;28;20065;-63
2022/01/08 10:30:24;;;;;;;1.40;0.93;;;;;;;;;;4969301;28;20063;-62
2022/01/08 10:33:07;;;;;;;1.00;0.80;;;;;;;;;;4966982;28;20023;-64
2022/01/08 10:35:49;;;;;;;2.75;1.00;;;;;;;;;;4964563;28;20888;-63
2022/01/08 10:38:14;;;;;;;1.30;0.77;;;;;;;;;;4970543;28;20081;-64
2022/01/08 10:40:40;;;;;;;2.03;0.90;;;;;;;;;;4967648;28;20463;-63
2022/01/08 10:43:19;;;;;;;2.35;0.90;;;;;;;;;;4970818;28;20045;-63
2022/01/08 10:45:44;;;;;;;1.77;1.00;;;;;;;;;;4966166;28;20501;-64
2022/01/08 10:48:09;;;;;;;2.85;1.45;;;;;;;;;;4970442;28;20035;-63
2022/01/08 10:50:34;;;;;;;1.85;0.90;;;;;;;;;;4970544;28;20030;-64
2022/01/08 10:52:59;;;;;;;2.30;0.90;;;;;;;;;;4970768;28;20065;-63
2022/01/08 10:55:32;;;;;;;1.02;0.88;;;;;;;;;;4970376;28;20039;-64
2022/01/08 10:57:57;;;;;;;1.75;1.02;;;;;;;;;;4964564;28;20046;-63
2022/01/08 11:00:29;;;;;;;2.20;1.20;;;;;;;;;;4970244;28;20532;-64
2022/01/08 11:02:55;;;;;;;1.98;1.05;;;;;;;;;;4964627;28;20030;-64
2022/01/08 11:05:20;;;;;;;2.78;1.30;;;;;;;;;;4970427;28;20553;-63
2022/01/08 11:07:45;;;;;;;2.67;1.40;;;;;;;;;;4965664;28;20513;-64
2022/01/08 11:10:16;;;;;;;2.22;1.30;;;;;;;;;;4967187;28;20027;-64
2022/01/08 11:12:44;;;;;;;2.20;1.20;;;;;;;;;;4968462;28;20390;-63
2022/01/08 11:17:49;;;;;;;2.92;1.45;;;;;;;;;;4970116;28;20057;-65
2022/01/08 11:20:16;;;;;;;3.67;1.55;;;;;;;;;;4967698;28;20110;-65
2022/01/08 11:22:45;;;;;;;2.95;1.23;;;;;;;;;;4971532;28;20553;-65
2022/01/08 11:25:12;;;;;;;3.15;1.60;;;;;;;;;;4969970;28;20023;-67
2022/01/08 11:27:43;;;;;;;1.90;1.50;;;;;;;;;;4967178;28;20406;-64
2022/01/08 11:30:08;;;;;;;2.28;1.60;;;;;;;;;;4969301;28;20442;-64
2022/01/08 11:32:35;;;;;;;3.47;1.80;;;;;;;;;;4969489;28;20106;-64
2022/01/08 11:35:01;;;;;;;2.42;1.90;;;;;;;;;;4968480;28;20418;-63
2022/01/08 11:37:26;;;;;;;4.18;1.80;;;;;;;;;;4967712;28;20077;-65
2022/01/08 11:39:52;;;;;;;4.65;1.80;;;;;;;;;;4966548;28;20026;-65
2022/01/08 11:42:19;;;;;;;2.55;1.60;;;;;;;;;;4969622;28;20141;-64
2022/01/08 11:44:44;;;;;;;2.60;1.58;;;;;;;;;;4968747;28;20510;-65
2022/01/08 11:47:10;;;;;;;3.75;1.98;;;;;;;;;;4969244;28;20065;-65
2022/01/08 11:49:35;;;;;;;3.83;2.00;;;;;;;;;;4961986;28;20054;-64
2022/01/08 11:52:20;;;;;;;3.97;1.77;;;;;;;;;;4967276;28;20114;-65
2022/01/08 11:54:47;;;;;;;2.35;1.65;;;;;;;;;;4963942;28;20078;-64
2022/01/08 11:57:30;;;;;;;3.00;1.73;;;;;;;;;;4967511;28;20022;-64
2022/01/08 11:59:57;;;;;;;3.00;1.65;;;;;;;;;;4961353;28;20027;-65
2022/01/08 12:02:34;;;;;;;3.17;1.50;;;;;;;;;;4966880;28;20121;-65
2022/01/08 12:05:00;;;;;;;2.97;1.35;;;;;;;;;;4951518;28;20046;-63
2022/01/08 12:07:34;;;;;;;2.47;1.40;;;;;;;;;;4969058;28;20046;-65
2022/01/08 12:10:23;;;;;;;2.17;1.45;;;;;;;;;;4964047;28;20490;-64
2022/01/08 12:12:48;;;;;;;2.33;1.30;;;;;;;;;;4965928;28;20078;-64
2022/01/08 12:15:15;;;;;;;2.92;1.52;;;;;;;;;;4963552;28;20305;-67
2022/01/08 12:17:53;;;;;;;2.78;1.48;;;;;;;;;;4968891;28;20418;-65
2022/01/08 12:20:37;;;;;;;2.38;1.40;;;;;;;;;;4971198;28;20125;-65
2022/01/08 12:23:35;;;;;;;3.70;2.28;;;;;;;;;;4968013;28;20027;-67
2022/01/08 12:26:09;;;;;;;2.70;1.60;;;;;;;;;;4927222;29;20051;-65
2022/01/08 12:28:45;;;;;;;2.20;1.45;;;;;;;;;;4925925;29;20857;-64
2022/01/08 12:31:28;;;;;;;2.22;1.55;;;;;;;;;;4920419;29;20210;-65
2022/01/08 12:34:15;;;;;;;3.47;1.70;;;;;;;;;;4930827;29;20027;-67
2022/01/08 12:36:54;;;;;;;2.20;1.38;;;;;;;;;;4916290;29;20036;-66
2022/01/08 12:39:22;;;;;;;2.33;1.60;;;;;;;;;;4928765;29;20034;-65
2022/01/08 12:41:48;;;;;;;3.47;1.38;;;;;;;;;;4930674;29;20035;-66
2022/01/08 12:44:26;;;;;;;3.25;2.00;;;;;;;;;;4931976;29;20046;-66
2022/01/08 12:46:51;;;;;;;4.30;1.45;;;;;;;;;;4931928;29;20057;-66
2022/01/08 12:49:16;;;;;;;2.92;1.70;;;;;;;;;;4931765;29;20032;-66
2022/01/08 12:51:48;;;;;;;6.30;1.80;;;;;;;;;;4916777;29;20024;-67
2022/01/08 12:54:13;;;;;;;4.80;2.25;;;;;;;;;;4931692;29;20519;-65
2022/01/08 12:56:45;;;;;;;2.72;1.70;;;;;;;;;;4931988;29;20036;-65
2022/01/08 12:59:10;;;;;;;4.35;2.10;;;;;;;;;;4931914;29;20046;-65
2022/01/08 13:01:36;;;;;;;4.25;2.00;;;;;;;;;;4951399;28;20038;-65
2022/01/08 13:04:02;;;;;;;2.80;1.80;;;;;;;;;;4970441;28;20386;-67
2022/01/08 13:06:34;;;;;;;3.58;2.03;;;;;;;;;;4965505;28;20045;-64
2022/01/08 13:09:00;;;;;;;2.88;1.88;;;;;;;;;;4966713;28;20027;-67
2022/01/08 13:11:28;;;;;;;4.25;2.05;;;;;;;;;;4966425;28;20027;-65
2022/01/08 13:13:55;;;;;;;3.55;2.05;;;;;;;;;;4964036;28;20011;-65
2022/01/08 13:16:25;;;;;;;3.60;2.00;;;;;;;;;;4972362;28;20093;-66
2022/01/08 13:18:51;;;;;;;3.15;1.88;;;;;;;;;;4966382;28;20022;-65
2022/01/08 13:21:17;;;;;;;3.65;1.77;;;;;;;;;;4972661;28;20027;-65
2022/01/08 13:23:52;;;;;;;3.88;1.73;;;;;;;;;;4972169;28;20027;-66
2022/01/08 13:26:28;;;;;;;3.97;1.90;;;;;;;;;;4966078;28;20039;-66
2022/01/08 13:28:53;;;;;;;2.92;1.52;;;;;;;;;;4972065;28;20030;-65
2022/01/08 13:31:18;;;;;;;3.47;1.50;;;;;;;;;;4972247;28;20030;-64
2022/01/08 13:33:54;;;;;;;2.35;1.40;;;;;;;;;;4971483;28;20027;-65
2022/01/08 13:36:20;;;;;;;3.78;1.65;;;;;;;;;;4972259;28;20396;-66
2022/01/08 13:38:45;;;;;;;3.65;1.30;;;;;;;;;;4972016;28;20031;-65
2022/01/08 13:41:17;;;;;;;2.78;1.10;;;;;;;;;;4970903;28;20038;-66
2022/01/08 13:44:03;;;;;;;2.95;1.20;;;;;;;;;;4971555;28;20033;-65
2022/01/08 13:46:31;;;;;;;2.83;1.48;;;;;;;;;;4966478;28;20039;-65
2022/01/08 13:48:56;;;;;;;3.22;1.45;;;;;;;;;;4971976;28;20437;-65
2022/01/08 13:51:24;;;;;;;1.98;1.20;;;;;;;;;;4971522;28;20061;-65
2022/01/08 13:53:59;;;;;;;2.55;1.35;;;;;;;;;;4965517;28;20533;-65
2022/01/08 13:56:25;;;;;;;3.45;1.13;;;;;;;;;;4971377;28;20042;-65
2022/01/08 13:58:50;;;;;;;2.63;1.20;;;;;;;;;;4971757;28;20074;-64
2022/01/08 14:01:17;;;;;;;4.07;1.50;;;;;;;;;;4953959;28;20414;-64
2022/01/08 14:03:43;;;;;;;4.15;1.20;;;;;;;;;;4971363;28;20042;-66
2022/01/08 14:06:08;;;;;;;2.42;1.30;;;;;;;;;;4971680;28;20459;-66
2022/01/08 14:08:34;;;;;;;2.53;1.15;;;;;;;;;;4971580;28;20098;-66
2022/01/08 14:11:01;;;;;;;3.17;1.50;;;;;;;;;;4971367;28;20474;-65
2022/01/08 14:13:44;;;;;;;4.63;1.77;;;;;;;;;;4971596;28;20027;-64
2022/01/08 14:16:11;;;;;;;3.33;1.77;;;;;;;;;;4970569;28;20052;-66
2022/01/08 14:18:37;;;;;;;2.80;1.20;;;;;;;;;;4971230;28;20074;-66
2022/01/08 14:21:13;;;;;;;3.20;1.45;;;;;;;;;;4971078;28;20113;-66
2022/01/08 14:23:38;;;;;;;2.85;1.08;;;;;;;;;;4969569;28;20113;-65
2022/01/08 14:26:14;;;;;;;3.88;1.10;;;;;;;;;;4970668;28;20137;-65
2022/01/08 14:28:39;;;;;;;2.60;1.00;;;;;;;;;;4971176;28;20059;-66
2022/01/08 14:31:12;;;;;;;1.88;0.90;;;;;;;;;;4971424;28;20065;-64
2022/01/08 14:33:56;;;;;;;3.03;1.05;;;;;;;;;;4971092;28;20027;-66
2022/01/08 14:36:22;;;;;;;3.33;0.90;;;;;;;;;;4970159;28;20026;-65
2022/01/08 14:38:48;;;;;;;1.50;0.82;;;;;;;;;;4970501;28;20019;-65
2022/01/08 14:41:13;;;;;;;3.45;1.10;;;;;;;;;;4953603;28;20019;-64
2022/01/08 14:43:38;;;;;;;1.92;1.00;;;;;;;;;;4970672;28;20065;-65
2022/01/08 14:46:03;;;;;;;3.72;1.20;;;;;;;;;;4965240;28;20031;-65
2022/01/08 14:48:29;;;;;;;3.45;1.33;;;;;;;;;;4970883;28;20043;-66
2022/01/08 14:50:54;;;;;;;2.47;1.10;;;;;;;;;;4970216;28;20483;-65
2022/01/08 14:53:20;;;;;;;3.78;1.10;;;;;;;;;;4968070;28;20062;-66
2022/01/08 14:55:46;;;;;;;2.67;1.23;;;;;;;;;;4969150;28;20059;-64
2022/01/08 14:58:12;;;;;;;3.42;1.20;;;;;;;;;;4967373;28;20031;-65
2022/01/08 15:00:37;;;;;;;1.75;1.02;;;;;;;;;;4968744;28;20093;-65
2022/01/08 15:03:03;;;;;;;3.97;1.23;;;;;;;;;;4970437;28;20042;-64